Time;durP1;ratioP1;P1;durP2;ratioP2;P2;SDS_P1;SDS_P2;PMS_P1;PMS_P2;Temp;Humidity;BMP_temperature;BMP_pressure;BME280_temperature;BME280_humidity;BME280_pressure;Samples;Min_cycle;Max_cycle;Signal;HPM_P1;HPM_P2
2022/03/13 00:01:51;;;;;;;12.83;6.80;;;;;;;-0.11;67.13;94508.88;5015617;28;20205;-64
2022/03/13 00:04:37;;;;;;;9.33;6.70;;;;;;;-0.18;65.69;94492.84;5029155;28;20198;-65
2022/03/13 00:07:24;;;;;;;10.80;6.43;;;;;;;-0.43;66.76;94503.06;5032064;28;20872;-59
2022/03/13 00:10:10;;;;;;;12.83;6.87;;;;;;;-0.38;66.82;94506.06;5015749;28;20333;-64
2022/03/13 00:12:56;;;;;;;9.40;6.73;;;;;;;-0.52;67.70;94490.09;5026328;28;20681;-63
2022/03/13 00:15:42;;;;;;;13.80;6.90;;;;;;;-0.55;67.91;94492.81;5031616;28;20207;-62
2022/03/13 00:18:32;;;;;;;13.63;6.73;;;;;;;-0.35;68.44;94494.53;5031354;28;20195;-62
2022/03/13 00:21:20;;;;;;;8.80;6.63;;;;;;;-0.46;67.81;94512.63;5027903;28;20198;-62
2022/03/13 00:24:07;;;;;;;10.00;6.83;;;;;;;-0.63;70.07;94515.47;5017172;28;20202;-62
2022/03/13 00:26:53;;;;;;;12.97;7.53;;;;;;;-0.68;69.10;94494.44;5029467;28;20207;-62
2022/03/13 00:29:41;;;;;;;11.30;6.00;;;;;;;-0.69;69.38;94485.63;5013851;28;20217;-62
2022/03/13 00:32:27;;;;;;;12.53;7.20;;;;;;;-0.79;70.62;94497.22;5031263;28;20286;-62
2022/03/13 00:35:13;;;;;;;10.87;6.90;;;;;;;-0.67;71.33;94501.31;5011841;28;20675;-64
2022/03/13 00:37:59;;;;;;;13.03;7.20;;;;;;;-0.54;70.14;94497.00;5031966;28;20199;-62
2022/03/13 00:40:51;;;;;;;10.67;7.13;;;;;;;-0.57;71.31;94497.78;5030414;28;20227;-62
2022/03/13 00:43:37;;;;;;;12.23;7.97;;;;;;;-0.62;70.72;94507.03;5024156;28;20221;-62
2022/03/13 00:46:23;;;;;;;12.00;7.77;;;;;;;-0.55;70.63;94484.75;5030128;28;20242;-63
2022/03/13 00:49:09;;;;;;;13.67;7.60;;;;;;;-0.65;70.68;94486.38;5031144;28;20297;-65
2022/03/13 00:51:59;;;;;;;12.03;7.87;;;;;;;-0.81;72.05;94494.16;5028074;28;20268;-63
2022/03/13 00:54:45;;;;;;;12.20;7.23;;;;;;;-0.92;72.85;94484.66;5030810;28;20201;-62
2022/03/13 00:57:32;;;;;;;12.87;8.17;;;;;;;-0.87;73.14;94479.66;5028855;28;20219;-62
2022/03/13 01:00:18;;;;;;;11.37;7.83;;;;;;;-0.74;72.79;94488.75;5030822;28;20700;-64
2022/03/13 01:03:04;;;;;;;13.83;7.23;;;;;;;-0.85;72.97;94481.94;5029805;28;20202;-64
2022/03/13 01:05:50;;;;;;;14.33;7.90;;;;;;;-0.86;73.03;94480.41;5024363;28;20223;-64
2022/03/13 01:08:36;;;;;;;9.30;6.63;;;;;;;-0.81;73.49;94486.13;5031791;28;20187;-64
2022/03/13 01:11:23;;;;;;;14.53;8.33;;;;;;;-0.78;73.54;94469.22;5010956;28;20566;-64
2022/03/13 01:14:09;;;;;;;10.73;7.50;;;;;;;-0.84;73.90;94480.78;5016262;28;20621;-64
2022/03/13 01:17:04;;;;;;;11.80;7.53;;;;;;;-0.93;74.29;94465.13;5024332;28;20697;-64
2022/03/13 01:19:50;;;;;;;12.60;8.00;;;;;;;-1.07;75.21;94467.94;5027987;28;20698;-64
2022/03/13 01:22:36;;;;;;;16.03;8.00;;;;;;;-0.99;76.31;94468.63;5025171;28;20189;-64
2022/03/13 01:25:22;;;;;;;10.83;7.70;;;;;;;-0.97;76.78;94464.44;5003956;28;20205;-64
2022/03/13 01:28:12;;;;;;;12.43;7.47;;;;;;;-0.85;75.73;94455.13;5016749;28;20572;-64
2022/03/13 01:30:59;;;;;;;13.67;8.27;;;;;;;-1.03;75.61;94449.91;5029564;28;20215;-65
2022/03/13 01:33:45;;;;;;;11.07;7.10;;;;;;;-1.19;76.64;94462.28;5028205;28;20734;-63
2022/03/13 01:36:31;;;;;;;10.47;7.93;;;;;;;-1.30;77.83;94463.09;5024911;28;20622;-59
2022/03/13 01:39:17;;;;;;;12.63;8.23;;;;;;;-1.24;78.07;94450.81;5031068;28;20187;-59
2022/03/13 01:42:04;;;;;;;15.50;9.13;;;;;;;-1.34;78.27;94445.53;5025552;28;20282;-62
2022/03/13 01:44:50;;;;;;;13.93;8.90;;;;;;;-1.35;79.42;94449.34;5029280;28;20244;-62
2022/03/13 01:47:37;;;;;;;14.50;9.37;;;;;;;-1.22;78.99;94440.47;5029047;28;20199;-62
2022/03/13 01:50:24;;;;;;;16.07;8.90;;;;;;;-1.33;79.56;94442.47;5025965;28;20241;-62
2022/03/13 01:53:10;;;;;;;14.70;9.07;;;;;;;-1.43;79.83;94435.28;5022318;28;20210;-62
2022/03/13 01:55:56;;;;;;;19.67;9.27;;;;;;;-1.31;80.65;94437.47;5013254;28;20310;-62
2022/03/13 01:58:42;;;;;;;17.10;9.30;;;;;;;-1.30;79.51;94427.50;5027531;28;20202;-59
2022/03/13 02:01:28;;;;;;;15.07;8.77;;;;;;;-1.25;79.65;94435.91;5027880;28;20198;-64
2022/03/13 02:04:22;;;;;;;21.67;10.97;;;;;;;-1.42;80.28;94426.06;5029141;28;20257;-64
2022/03/13 02:07:08;;;;;;;16.17;9.43;;;;;;;-1.41;80.17;94424.16;5014425;28;20310;-62
2022/03/13 02:09:54;;;;;;;19.03;9.30;;;;;;;-1.48;80.64;94424.19;5029396;28;20854;-62
2022/03/13 02:12:41;;;;;;;18.13;9.70;;;;;;;-1.44;81.42;94425.69;5029633;28;20816;-59
2022/03/13 02:15:30;;;;;;;17.23;10.47;;;;;;;-1.41;81.03;94421.47;5027858;28;20654;-62
2022/03/13 02:18:19;;;;;;;19.63;10.37;;;;;;;-1.44;80.53;94419.56;5027354;28;20214;-62
2022/03/13 02:21:04;;;;;;;17.83;10.13;;;;;;;-1.55;81.42;94421.56;5009430;28;20322;-64
2022/03/13 02:23:50;;;;;;;19.33;10.70;;;;;;;-1.51;81.54;94427.66;5021669;28;20290;-64
2022/03/13 02:26:36;;;;;;;21.97;9.93;;;;;;;-1.54;81.59;94417.72;5020170;28;20613;-64
2022/03/13 02:29:22;;;;;;;17.63;10.13;;;;;;;-1.44;81.17;94409.63;5025093;28;20199;-64
2022/03/13 02:32:08;;;;;;;14.40;9.20;;;;;;;-1.34;80.47;94413.41;5010195;28;20216;-64
2022/03/13 02:34:54;;;;;;;15.47;9.80;;;;;;;-1.25;81.62;94413.72;5014422;28;20195;-59
2022/03/13 02:37:41;;;;;;;17.03;10.47;;;;;;;-1.40;80.72;94442.50;5029908;28;20248;-62
2022/03/13 02:40:27;;;;;;;15.77;9.13;;;;;;;-1.29;81.08;94437.84;5028643;28;20663;-62
2022/03/13 02:43:13;;;;;;;14.23;9.00;;;;;;;-1.22;79.70;94437.78;5027775;28;20198;-62
2022/03/13 02:46:00;;;;;;;17.07;9.73;;;;;;;-1.28;80.61;94435.94;5027986;28;20704;-62
2022/03/13 02:48:46;;;;;;;13.73;8.87;;;;;;;-1.28;81.60;94435.94;5012573;28;20210;-62
2022/03/13 02:51:32;;;;;;;13.03;8.07;;;;;;;-1.14;80.98;94430.47;5029440;28;20238;-59
2022/03/13 02:54:19;;;;;;;13.87;9.00;;;;;;;-0.94;79.70;94436.84;5026498;28;20261;-59
2022/03/13 02:57:06;;;;;;;15.90;9.27;;;;;;;-1.23;80.42;94438.97;5025593;28;20281;-59
2022/03/13 02:59:52;;;;;;;14.20;8.43;;;;;;;-1.28;82.18;94435.94;5025305;28;20199;-59
2022/03/13 03:02:38;;;;;;;15.07;8.93;;;;;;;-1.22;81.67;94450.41;5027670;28;20194;-62
2022/03/13 03:05:24;;;;;;;15.77;9.13;;;;;;;-1.06;82.81;94445.34;5025357;28;20253;-64
2022/03/13 03:08:11;;;;;;;13.97;8.93;;;;;;;-0.97;81.65;94448.34;5022303;28;20199;-64
2022/03/13 03:10:57;;;;;;;14.93;9.40;;;;;;;-0.76;80.89;94450.06;5026817;28;20223;-64
2022/03/13 03:13:43;;;;;;;13.13;8.37;;;;;;;-0.80;79.39;94457.41;5023308;28;20199;-62
2022/03/13 03:16:30;;;;;;;12.57;8.50;;;;;;;-1.15;79.91;94457.66;5029394;28;20639;-64
2022/03/13 03:19:16;;;;;;;12.70;8.53;;;;;;;-1.27;81.01;94450.84;5029140;28;20597;-59
2022/03/13 03:22:02;;;;;;;13.67;9.40;;;;;;;-1.28;82.17;94444.72;5010887;28;20660;-58
2022/03/13 03:24:48;;;;;;;17.30;8.97;;;;;;;-1.47;81.07;94444.44;5027742;28;20284;-59
2022/03/13 03:27:34;;;;;;;14.00;8.23;;;;;;;-1.51;82.34;94449.81;5026924;28;20242;-59
2022/03/13 03:30:27;;;;;;;18.67;9.73;;;;;;;-1.52;82.21;94448.31;5028755;28;20310;-59
2022/03/13 03:33:13;;;;;;;13.33;8.57;;;;;;;-1.60;82.75;94456.78;5029512;28;20670;-62
2022/03/13 03:35:59;;;;;;;14.03;8.87;;;;;;;-1.61;85.03;94457.91;5021326;28;20577;-62
2022/03/13 03:38:45;;;;;;;13.63;8.17;;;;;;;-1.50;84.21;94461.31;5026958;28;20205;-62
2022/03/13 03:41:31;;;;;;;11.60;8.27;;;;;;;-1.60;83.16;94462.13;5027765;28;20907;-62
2022/03/13 03:44:18;;;;;;;15.80;8.67;;;;;;;-1.68;83.53;94458.72;5025830;28;20195;-62
2022/03/13 03:47:04;;;;;;;11.87;7.90;;;;;;;-1.52;84.35;94456.34;5028595;28;20211;-62
2022/03/13 03:49:50;;;;;;;13.93;8.40;;;;;;;-1.60;83.28;94467.47;5009804;28;20204;-60
2022/03/13 03:52:36;;;;;;;14.43;8.53;;;;;;;-1.56;83.62;94465.56;5023889;28;20210;-59
2022/03/13 03:55:23;;;;;;;13.27;8.40;;;;;;;-1.71;85.37;94474.78;5021494;28;20203;-59
2022/03/13 03:58:09;;;;;;;14.77;7.70;;;;;;;-1.63;84.51;94470.94;5030466;28;20217;-59
2022/03/13 04:00:54;;;;;;;13.03;8.47;;;;;;;-1.75;85.17;94482.81;5015283;28;20282;-60
2022/03/13 04:03:40;;;;;;;14.27;8.43;;;;;;;-1.89;85.27;94471.44;5027478;28;20191;-59
2022/03/13 04:06:26;;;;;;;13.33;8.10;;;;;;;-1.96;86.35;94474.91;5031699;28;20694;-59
2022/03/13 04:09:12;;;;;;;15.73;8.83;;;;;;;-2.09;86.40;94481.06;5031850;28;20199;-59
2022/03/13 04:11:58;;;;;;;12.50;8.00;;;;;;;-2.01;87.12;94482.53;5017542;28;20280;-59
2022/03/13 04:14:45;;;;;;;13.47;8.73;;;;;;;-2.00;88.17;94474.13;5028929;28;20214;-62
2022/03/13 04:17:31;;;;;;;13.60;9.07;;;;;;;-1.96;87.39;94485.59;5036329;28;20226;-62
2022/03/13 04:20:17;;;;;;;14.60;8.40;;;;;;;-1.93;88.02;94481.38;5040822;28;20217;-62
2022/03/13 04:23:02;;;;;;;11.20;7.97;;;;;;;-1.99;87.85;94485.59;5023015;28;20234;-62
2022/03/13 04:25:48;;;;;;;14.57;8.90;;;;;;;-1.96;88.46;94493.63;5030074;28;20211;-62
2022/03/13 04:28:35;;;;;;;13.90;7.57;;;;;;;-1.70;87.55;94490.47;5028985;28;20191;-62
2022/03/13 04:31:20;;;;;;;12.27;7.63;;;;;;;-1.85;87.46;94490.91;5029839;28;20215;-62
2022/03/13 04:34:06;;;;;;;21.47;9.10;;;;;;;-1.69;87.82;94499.25;5027008;28;20207;-62
2022/03/13 04:36:52;;;;;;;13.23;8.30;;;;;;;-1.55;85.34;94489.25;5023742;28;20219;-62
2022/03/13 04:39:39;;;;;;;11.03;7.73;;;;;;;-1.71;88.00;94502.31;5031591;28;20578;-62
2022/03/13 04:42:25;;;;;;;12.07;8.20;;;;;;;-1.71;87.05;94504.22;5015958;28;20187;-62
2022/03/13 04:45:12;;;;;;;12.23;8.73;;;;;;;-1.85;85.91;94497.00;5024848;28;20199;-62
2022/03/13 04:47:58;;;;;;;11.50;8.60;;;;;;;-2.17;86.99;94501.69;5030724;28;20265;-62
2022/03/13 04:50:45;;;;;;;10.50;7.63;;;;;;;-1.64;88.38;94496.16;5025447;28;20258;-62
2022/03/13 04:53:31;;;;;;;12.70;7.87;;;;;;;-2.05;87.08;94508.56;5031460;28;20253;-62
2022/03/13 04:56:17;;;;;;;12.83;8.40;;;;;;;-2.02;88.62;94500.50;5029225;28;20222;-62
2022/03/13 04:59:05;;;;;;;11.63;8.03;;;;;;;-1.96;88.21;94512.34;5026093;28;20701;-62
2022/03/13 05:01:52;;;;;;;13.37;8.27;;;;;;;-2.23;87.33;94505.91;5016747;28;20199;-62
2022/03/13 05:04:38;;;;;;;12.27;8.83;;;;;;;-2.45;89.69;94507.09;5030609;28;20187;-59
2022/03/13 05:07:24;;;;;;;11.83;7.47;;;;;;;-2.55;90.97;94502.53;5025867;28;20222;-59
2022/03/13 05:10:11;;;;;;;13.13;8.67;;;;;;;-2.53;91.62;94510.94;5027433;28;21018;-58
2022/03/13 05:12:58;;;;;;;12.60;7.93;;;;;;;-2.50;91.73;94515.50;5029719;28;20191;-60
2022/03/13 05:15:46;;;;;;;13.20;7.67;;;;;;;-2.54;91.94;94523.53;5027527;28;20214;-59
2022/03/13 05:18:32;;;;;;;15.13;9.33;;;;;;;-2.39;93.27;94518.19;4996404;28;20223;-59
2022/03/13 05:21:18;;;;;;;12.43;8.87;;;;;;;-2.26;91.55;94519.28;4998758;28;20180;-59
2022/03/13 05:24:04;;;;;;;12.77;8.90;;;;;;;-2.11;89.57;94526.16;5027638;28;20662;-59
2022/03/13 05:26:50;;;;;;;14.73;8.97;;;;;;;-2.31;91.83;94527.72;5022712;28;20207;-58
2022/03/13 05:29:35;;;;;;;12.53;8.30;;;;;;;-2.21;92.14;94526.94;5026407;28;20222;-59
2022/03/13 05:32:21;;;;;;;10.77;7.90;;;;;;;-2.36;90.53;94534.22;5028757;28;20666;-59
2022/03/13 05:35:08;;;;;;;14.40;8.90;;;;;;;-2.33;92.41;94536.13;5028125;28;20638;-63
2022/03/13 05:37:53;;;;;;;12.17;8.77;;;;;;;-2.26;90.83;94536.13;5026681;28;20198;-62
2022/03/13 05:40:40;;;;;;;16.80;7.87;;;;;;;-2.57;91.21;94543.00;5027695;28;20913;-62
2022/03/13 05:43:29;;;;;;;18.97;8.90;;;;;;;-2.53;92.05;94543.00;5028904;28;20581;-62
2022/03/13 05:46:15;;;;;;;13.20;8.53;;;;;;;-2.50;94.43;94540.34;5030018;28;20695;-62
2022/03/13 05:49:02;;;;;;;16.30;8.93;;;;;;;-2.40;92.53;94541.47;5029185;28;20627;-62
2022/03/13 05:51:49;;;;;;;14.50;8.20;;;;;;;-2.38;92.24;94551.78;5027777;28;20225;-62
2022/03/13 05:54:35;;;;;;;13.63;8.43;;;;;;;-2.01;92.44;94547.53;5024873;28;20199;-62
2022/03/13 05:57:20;;;;;;;12.70;7.77;;;;;;;-2.21;90.86;94549.09;5024523;28;20305;-62
2022/03/13 06:00:10;;;;;;;15.67;8.67;;;;;;;-2.30;91.88;94551.38;5025315;28;20292;-62
2022/03/13 06:03:02;;;;;;;12.63;8.97;;;;;;;-2.00;92.52;94556.31;5028854;28;20276;-62
2022/03/13 06:05:48;;;;;;;14.87;9.40;;;;;;;-2.12;92.59;94552.13;5027940;28;20222;-62
2022/03/13 06:08:34;;;;;;;13.90;9.73;;;;;;;-2.18;92.47;94560.91;5016675;28;20587;-62
2022/03/13 06:11:20;;;;;;;13.30;8.63;;;;;;;-2.07;94.55;94559.75;5009305;28;20775;-61
2022/03/13 06:14:06;;;;;;;12.80;8.83;;;;;;;-2.29;92.73;94555.56;5015304;28;20218;-61
2022/03/13 06:16:52;;;;;;;14.20;8.80;;;;;;;-1.85;92.16;94555.88;5029216;28;20218;-58
2022/03/13 06:19:42;;;;;;;11.60;8.60;;;;;;;-1.60;92.62;94561.19;5027523;28;20187;-59
2022/03/13 06:22:28;;;;;;;11.83;8.67;;;;;;;-1.66;90.35;94566.16;5010110;28;20206;-63
2022/03/13 06:25:16;;;;;;;14.80;8.80;;;;;;;-1.64;89.52;94560.41;5020080;28;20199;-62
2022/03/13 06:28:02;;;;;;;14.00;9.23;;;;;;;-1.42;90.54;94562.63;5013056;28;20720;-62
2022/03/13 06:30:48;;;;;;;17.93;10.00;;;;;;;-1.80;90.02;94570.81;5028797;28;20226;-62
2022/03/13 06:33:34;;;;;;;14.73;9.57;;;;;;;-1.57;92.12;94566.53;5017210;28;20202;-63
2022/03/13 06:36:20;;;;;;;14.70;8.73;;;;;;;-1.70;90.81;94568.09;5011275;28;20273;-62
2022/03/13 06:39:06;;;;;;;14.03;9.10;;;;;;;-1.33;89.46;94578.28;5026950;28;20199;-62
2022/03/13 06:41:52;;;;;;;12.90;8.67;;;;;;;-1.00;89.93;94571.63;5010465;28;20191;-62
2022/03/13 06:44:38;;;;;;;14.43;9.27;;;;;;;-0.78;87.23;94565.75;5020849;28;20325;-63
2022/03/13 06:47:24;;;;;;;14.93;9.67;;;;;;;-0.63;87.83;94575.22;5028023;28;20222;-62
2022/03/13 06:50:11;;;;;;;15.70;10.07;;;;;;;-0.58;86.36;94582.09;5018339;28;20215;-62
2022/03/13 06:53:00;;;;;;;18.43;9.07;;;;;;;-0.15;86.61;94572.53;5015633;28;20868;-62
2022/03/13 06:55:46;;;;;;;18.13;9.67;;;;;;;0.15;83.42;94574.59;5019313;28;20307;-63
2022/03/13 06:58:32;;;;;;;15.23;9.80;;;;;;;0.55;82.57;94574.53;5028502;28;20639;-63
2022/03/13 07:01:18;;;;;;;15.27;9.63;;;;;;;0.82;82.85;94572.69;5028266;28;20242;-63
2022/03/13 07:04:04;;;;;;;14.80;10.10;;;;;;;1.05;82.37;94582.78;5018019;28;20198;-63
2022/03/13 07:06:50;;;;;;;16.63;10.80;;;;;;;0.95;82.69;94578.31;5017789;28;20222;-63
2022/03/13 07:09:36;;;;;;;15.07;9.67;;;;;;;1.23;85.46;94589.44;5013551;28;20248;-63
2022/03/13 07:12:23;;;;;;;11.90;9.20;;;;;;;1.34;84.08;94594.66;5026646;28;20223;-63
2022/03/13 07:15:13;;;;;;;13.43;9.30;;;;;;;1.25;83.60;94602.50;5022608;28;20207;-60
2022/03/13 07:17:59;;;;;;;12.70;9.37;;;;;;;1.32;84.14;94588.94;5008905;28;20199;-60
2022/03/13 07:20:45;;;;;;;15.20;9.23;;;;;;;1.48;83.52;94589.09;5007917;28;20217;-60
2022/03/13 07:23:31;;;;;;;15.53;10.00;;;;;;;1.60;83.01;94585.84;5027016;28;20238;-59
2022/03/13 07:26:17;;;;;;;15.30;10.00;;;;;;;1.84;84.64;94594.72;5025415;28;20218;-60
2022/03/13 07:29:03;;;;;;;16.47;9.13;;;;;;;2.05;84.26;94595.13;5025337;28;20195;-60
2022/03/13 07:31:49;;;;;;;15.00;10.30;;;;;;;2.05;83.11;94594.38;5019087;28;20211;-60
2022/03/13 07:34:34;;;;;;;12.80;9.43;;;;;;;2.13;83.54;94590.38;5030917;28;20198;-60
2022/03/13 07:37:20;;;;;;;18.27;10.43;;;;;;;2.39;83.29;94589.56;5025774;28;20225;-60
2022/03/13 07:40:07;;;;;;;14.73;9.80;;;;;;;2.63;82.74;94585.63;5028569;28;20214;-60
2022/03/13 07:42:53;;;;;;;16.07;10.00;;;;;;;2.80;82.50;94586.50;5029898;28;20206;-59
2022/03/13 07:45:39;;;;;;;13.23;9.67;;;;;;;2.96;83.38;94589.25;5028678;28;20725;-60
2022/03/13 07:48:25;;;;;;;16.80;10.30;;;;;;;3.13;86.80;94585.44;5032367;28;20195;-60
2022/03/13 07:51:12;;;;;;;14.40;9.67;;;;;;;3.26;89.32;94580.91;5024819;28;20690;-64
2022/03/13 07:53:58;;;;;;;17.00;10.63;;;;;;;3.51;86.59;94575.75;5010406;28;20204;-64
2022/03/13 07:56:44;;;;;;;14.30;10.63;;;;;;;3.72;86.87;94571.81;5027753;28;20219;-64
2022/03/13 07:59:30;;;;;;;14.47;9.30;;;;;;;3.89;84.10;94584.13;5031582;28;20835;-63
2022/03/13 08:02:16;;;;;;;16.93;9.90;;;;;;;4.15;82.23;94585.81;5024600;28;20203;-64
2022/03/13 08:05:02;;;;;;;15.00;10.13;;;;;;;4.44;79.81;94586.63;5028932;28;20271;-64
2022/03/13 08:07:49;;;;;;;15.13;9.90;;;;;;;4.65;76.08;94580.66;5034471;28;20704;-64
2022/03/13 08:10:35;;;;;;;15.70;9.53;;;;;;;4.89;71.12;94576.53;5031933;28;20243;-64
2022/03/13 08:13:22;;;;;;;16.30;10.83;;;;;;;5.22;68.43;94575.22;5008360;28;20210;-64
2022/03/13 08:16:07;;;;;;;13.20;9.30;;;;;;;5.49;65.46;94581.00;5031139;28;20217;-64
2022/03/13 08:18:54;;;;;;;13.37;9.70;;;;;;;5.83;64.34;94585.81;5029389;28;20195;-63
2022/03/13 08:21:41;;;;;;;16.93;10.53;;;;;;;6.06;62.83;94564.53;5021473;28;20195;-64
2022/03/13 08:24:28;;;;;;;16.97;11.30;;;;;;;6.33;63.73;94574.91;5030480;28;20824;-65
2022/03/13 08:27:14;;;;;;;12.73;9.13;;;;;;;6.57;66.94;94578.75;5021847;28;20211;-65
2022/03/13 08:30:01;;;;;;;13.43;10.07;;;;;;;6.71;66.11;94580.22;5025040;28;20953;-63
2022/03/13 08:32:47;;;;;;;13.87;9.87;;;;;;;6.80;62.04;94572.16;5029981;28;20199;-64
2022/03/13 08:35:33;;;;;;;12.70;9.43;;;;;;;7.09;61.54;94576.13;5022444;28;20574;-64
2022/03/13 08:38:18;;;;;;;17.47;10.47;;;;;;;7.18;57.33;94572.72;5025020;28;20191;-64
2022/03/13 08:41:04;;;;;;;14.47;10.00;;;;;;;7.38;56.64;94567.75;5011960;28;20245;-64
2022/03/13 08:43:50;;;;;;;14.97;10.47;;;;;;;7.55;56.15;94566.28;5026814;28;20586;-64
2022/03/13 08:46:38;;;;;;;16.07;10.40;;;;;;;7.78;53.33;94575.91;5029307;28;20222;-64
2022/03/13 08:49:24;;;;;;;14.20;10.10;;;;;;;7.94;50.04;94573.72;5020258;28;20198;-65
2022/03/13 08:52:10;;;;;;;15.73;10.47;;;;;;;8.07;47.34;94565.47;5025926;28;20338;-60
2022/03/13 08:54:56;;;;;;;15.67;10.53;;;;;;;8.21;45.08;94564.91;5027100;28;20282;-64
2022/03/13 08:57:43;;;;;;;14.73;9.70;;;;;;;8.41;45.34;94563.31;5029460;28;20653;-64
2022/03/13 09:00:29;;;;;;;13.63;9.23;;;;;;;8.57;43.04;94562.25;5024018;28;20664;-64
2022/03/13 09:03:15;;;;;;;15.03;10.13;;;;;;;8.87;42.52;94563.34;5015324;28;20183;-64
2022/03/13 09:06:01;;;;;;;14.37;9.53;;;;;;;8.97;42.34;94554.72;5022369;28;20227;-64
2022/03/13 09:08:49;;;;;;;13.30;9.17;;;;;;;9.13;42.35;94567.28;5012895;28;20187;-62
2022/03/13 09:11:36;;;;;;;14.70;9.27;;;;;;;9.09;41.80;94570.16;5016765;28;20211;-62
2022/03/13 09:14:23;;;;;;;17.83;9.63;;;;;;;9.29;41.64;94558.75;5018114;28;20278;-64
2022/03/13 09:17:09;;;;;;;14.00;9.30;;;;;;;9.38;41.17;94564.22;5029901;28;20226;-63
2022/03/13 09:19:56;;;;;;;12.17;8.80;;;;;;;9.51;41.56;94560.09;5011005;28;20203;-63
2022/03/13 09:22:42;;;;;;;13.93;10.10;;;;;;;9.70;40.64;94571.69;5019785;28;20200;-62
2022/03/13 09:25:28;;;;;;;17.20;9.03;;;;;;;9.63;40.06;94561.88;5023798;28;20264;-62
2022/03/13 09:28:14;;;;;;;14.50;10.40;;;;;;;9.93;39.89;94559.34;5028388;28;20562;-63
2022/03/13 09:31:01;;;;;;;13.20;9.00;;;;;;;10.03;40.33;94561.56;5030458;28;20242;-64
2022/03/13 09:33:47;;;;;;;26.70;9.73;;;;;;;10.30;40.18;94572.38;4995956;28;20602;-64
2022/03/13 09:36:37;;;;;;;13.57;8.97;;;;;;;10.42;39.92;94557.75;5021704;28;20220;-60
2022/03/13 09:39:23;;;;;;;15.83;9.60;;;;;;;10.53;39.70;94560.72;5031071;28;20200;-64
2022/03/13 09:42:09;;;;;;;15.87;9.13;;;;;;;10.48;39.66;94569.56;5031715;28;20187;-64
2022/03/13 09:44:54;;;;;;;12.47;8.60;;;;;;;10.37;39.14;94552.94;5015999;28;20187;-64
2022/03/13 09:47:41;;;;;;;13.20;9.03;;;;;;;10.45;39.90;94556.81;5030594;28;20199;-65
2022/03/13 09:50:28;;;;;;;14.03;8.83;;;;;;;10.55;39.52;94552.06;5011303;28;20319;-64
2022/03/13 09:53:14;;;;;;;13.83;9.13;;;;;;;10.80;39.30;94549.63;5026194;28;20195;-64
2022/03/13 09:56:03;;;;;;;12.17;8.87;;;;;;;10.94;37.67;94543.41;5027593;28;20230;-61
2022/03/13 09:58:49;;;;;;;12.13;8.87;;;;;;;11.05;37.55;94551.06;5028389;28;20195;-60
2022/03/13 10:01:35;;;;;;;10.40;7.80;;;;;;;11.08;37.12;94541.19;5030391;28;20186;-61
2022/03/13 10:04:21;;;;;;;12.60;7.57;;;;;;;11.12;36.27;94542.50;5017151;28;20231;-60
2022/03/13 10:07:10;;;;;;;12.47;8.80;;;;;;;11.13;36.46;94538.53;5014939;28;20229;-64
2022/03/13 10:09:57;;;;;;;12.97;7.23;;;;;;;11.45;35.67;94539.63;4996462;28;20857;-64
2022/03/13 10:12:43;;;;;;;9.30;7.20;;;;;;;11.48;34.34;94528.50;5017904;28;20183;-64
2022/03/13 10:15:40;;;;;;;10.70;6.27;;;;;;;11.80;33.55;94532.28;5028098;28;20203;-65
2022/03/13 10:18:26;;;;;;;8.33;6.63;;;;;;;11.77;33.06;94533.22;5013082;28;20195;-65
2022/03/13 10:21:17;;;;;;;11.03;7.13;;;;;;;12.00;34.07;94522.16;5029796;28;20187;-65
2022/03/13 10:24:10;;;;;;;7.53;5.90;;;;;;;12.21;32.31;94522.19;5021459;28;20327;-60
2022/03/13 10:27:20;;;;;;;7.77;5.90;;;;;;;12.38;34.01;94517.69;5021342;28;20926;-64
2022/03/13 10:30:08;;;;;;;10.93;6.80;;;;;;;12.18;32.62;94515.69;5012103;28;20199;-65
2022/03/13 10:32:57;;;;;;;8.67;6.10;;;;;;;12.47;32.71;94510.09;5027075;28;20199;-64
2022/03/13 10:35:43;;;;;;;9.43;5.93;;;;;;;12.50;32.24;94503.69;5029782;28;20673;-65
2022/03/13 10:38:33;;;;;;;8.07;6.27;;;;;;;12.83;31.76;94509.53;5023185;28;20190;-64
2022/03/13 10:41:20;;;;;;;9.77;6.83;;;;;;;12.67;31.04;94501.13;5026862;28;20218;-65
2022/03/13 10:44:13;;;;;;;10.10;5.67;;;;;;;12.81;30.87;94506.53;5028213;28;20626;-65
2022/03/13 10:47:03;;;;;;;9.57;5.37;;;;;;;12.92;30.42;94505.91;5028311;28;20219;-65
2022/03/13 10:49:53;;;;;;;7.40;5.83;;;;;;;12.86;30.68;94505.09;5028995;28;20920;-64
2022/03/13 10:52:45;;;;;;;6.47;5.47;;;;;;;12.81;30.33;94500.31;5014103;28;20183;-64
2022/03/13 10:55:31;;;;;;;5.50;4.63;;;;;;;12.70;29.35;94503.66;5027325;28;20241;-64
2022/03/13 10:58:16;;;;;;;6.93;5.00;;;;;;;12.80;29.31;94510.50;5027861;28;20552;-64
2022/03/13 11:01:04;;;;;;;6.47;5.13;;;;;;;12.93;28.09;94502.69;5029703;28;20723;-64
2022/03/13 11:03:56;;;;;;;6.40;5.33;;;;;;;12.76;28.55;94501.72;5014843;28;20564;-60
2022/03/13 11:06:43;;;;;;;6.90;5.23;;;;;;;12.72;28.89;94497.72;5033060;28;20206;-60
2022/03/13 11:09:28;;;;;;;10.33;6.33;;;;;;;12.94;29.02;94501.47;5041126;28;20677;-60
2022/03/13 11:12:20;;;;;;;9.43;5.93;;;;;;;12.86;29.38;94494.88;5040020;28;20262;-61
2022/03/13 11:15:08;;;;;;;7.37;5.67;;;;;;;12.92;29.63;94500.44;5034157;28;20225;-60
2022/03/13 11:17:56;;;;;;;7.47;5.20;;;;;;;12.84;29.02;94491.13;5038838;28;20235;-65
2022/03/13 11:20:43;;;;;;;6.77;5.63;;;;;;;12.96;29.64;94485.25;5040643;28;20253;-63
2022/03/13 11:23:30;;;;;;;8.23;5.67;;;;;;;13.15;29.48;94489.22;5039061;28;20311;-64
2022/03/13 11:26:18;;;;;;;7.93;5.87;;;;;;;13.11;30.13;94482.47;5012565;28;20713;-65
2022/03/13 11:29:08;;;;;;;7.03;4.97;;;;;;;12.97;28.92;94480.53;5028505;28;20282;-65
2022/03/13 11:31:55;;;;;;;11.43;5.40;;;;;;;12.86;28.43;94474.94;5036175;28;20326;-61
2022/03/13 11:34:40;;;;;;;7.90;5.10;;;;;;;13.01;28.10;94473.66;5028112;28;21976;-65
2022/03/13 11:37:30;;;;;;;8.40;5.13;;;;;;;12.92;28.11;94471.03;5030103;28;20211;-65
2022/03/13 11:40:29;;;;;;;6.27;5.37;;;;;;;13.06;29.37;94472.19;5046006;28;20198;-65
2022/03/13 11:43:21;;;;;;;6.47;5.37;;;;;;;12.98;27.42;94473.84;5013043;28;20208;-64
2022/03/13 11:46:07;;;;;;;9.10;6.13;;;;;;;13.11;28.23;94472.25;5018164;28;20211;-64
2022/03/13 11:48:53;;;;;;;8.40;5.63;;;;;;;13.16;28.04;94462.56;5015383;28;20203;-64
2022/03/13 11:51:39;;;;;;;7.13;5.23;;;;;;;13.19;28.56;94453.38;5018287;28;20284;-62
2022/03/13 11:54:47;;;;;;;9.33;5.53;;;;;;;13.25;28.76;94449.44;5019125;28;20203;-59
2022/03/13 11:57:50;;;;;;;8.30;6.17;;;;;;;13.38;28.32;94451.03;5016276;28;20218;-62
2022/03/13 12:00:36;;;;;;;8.03;6.03;;;;;;;13.25;29.05;94443.97;5031966;28;20233;-62
2022/03/13 12:03:21;;;;;;;9.77;6.60;;;;;;;13.31;29.03;94438.53;5032431;28;20191;-62
2022/03/13 12:06:08;;;;;;;7.73;5.90;;;;;;;13.37;28.03;94439.34;5023352;28;20230;-61
2022/03/13 12:09:06;;;;;;;11.40;7.10;;;;;;;13.24;28.58;94441.69;5025404;28;20554;-61
2022/03/13 12:11:55;;;;;;;7.93;6.43;;;;;;;13.26;28.68;94423.53;5030279;28;20207;-61
2022/03/13 12:15:09;;;;;;;9.00;6.60;;;;;;;13.29;28.72;94422.56;5025496;28;20195;-62
2022/03/13 13:44:29;;;;;;;14.50;9.90;;;;;;;13.97;29.38;94359.41;3365719;26;20217;-66
2022/03/13 13:47:24;;;;;;;13.57;9.60;;;;;;;14.01;29.44;94368.16;5060396;28;20225;-65
2022/03/13 13:50:15;;;;;;;12.23;8.93;;;;;;;14.10;29.58;94370.69;5041715;28;20197;-65
2022/03/13 13:53:02;;;;;;;14.63;9.60;;;;;;;14.26;29.02;94364.56;5066951;28;20192;-65
2022/03/13 13:55:49;;;;;;;10.67;8.90;;;;;;;14.11;30.67;94361.22;5036984;28;20226;-65
2022/03/13 13:58:35;;;;;;;12.87;9.80;;;;;;;14.27;30.01;94363.28;5042856;28;20248;-65
2022/03/13 14:01:23;;;;;;;13.50;9.33;;;;;;;14.08;29.30;94356.72;5034198;28;20186;-65
2022/03/13 14:04:09;;;;;;;13.40;9.57;;;;;;;14.01;29.99;94350.94;5022728;28;20210;-65
2022/03/13 14:06:56;;;;;;;13.70;8.67;;;;;;;14.24;29.63;94350.53;5048514;28;20213;-66
2022/03/13 14:09:45;;;;;;;13.40;8.83;;;;;;;14.15;29.46;94342.50;5068531;28;20277;-65
2022/03/13 14:12:31;;;;;;;11.93;9.23;;;;;;;14.26;29.70;94350.06;5047048;28;20283;-65
2022/03/13 14:15:18;;;;;;;11.67;8.73;;;;;;;14.19;29.39;94342.25;5043327;28;20190;-65
2022/03/13 14:18:04;;;;;;;13.27;8.53;;;;;;;14.07;29.34;94344.22;5031012;28;20191;-66
2022/03/13 14:20:50;;;;;;;12.93;9.60;;;;;;;14.18;29.27;94343.50;5038144;28;20361;-64
2022/03/13 14:23:36;;;;;;;11.30;8.93;;;;;;;14.30;29.44;94345.09;5047270;28;20198;-64
2022/03/13 14:26:22;;;;;;;14.23;9.07;;;;;;;14.27;29.28;94343.34;5039889;28;20268;-64